Terminal Aerodrome Forecast
Issued by NWS Boise, ID

Home | Current Version | Previous Version | Text Only | Print | Product List | Glossary On
Versions: 1 2 3 4 5 6 7 8 9 10 11 12 13 14 15 16 17 18 19 20 21 22 23 24 25 26 27 28 29 30 31 32 33
000
FTUS45 KBOI 161138
TAFBOI
TAF
KBOI 161138Z 1612/1712 VRB10G20KT P6SM VCTS BKN150CB
      TEMPO 1612/1614 P6SM -SHRA BKN070
     FM161400 14005KT P6SM SCT070 BKN150
     FM161800 33008KT P6SM SCT150
     FM170200 13007KT P6SM FEW250=

USA.gov is the U.S. government's official web portal to all federal, state and local government web resources and services.